アシガバート の空港の天気 - METARとTAF

アシガバート空港 ( UTAA / ASB ) - トルクメニスタン アシガバート
飛行場実況気象(Metar)
観測時間05/23 05:00 TMT (05/23 00:00 UTC)
風向・風速西南西 3m/s
視程10km以上
天気現象
なし
気温21℃
湿度26%
気圧1017hPa
METARUTAA 230000Z 24006KT 9999 NSC 21/01 Q1017 NOSIG
過去の天気等 Google飛行場航空写真 Wunderground天気予報

過去48時間のMETAR

飛行場予報(TAF)
発表時間: 5/23 03:12 TMT (5/22 22:12 UTC)
予報対象時間: 23日5時 TMT ~ 24日5時 TMT
風向・風速西北西 7m/s
視程6,000m
全天の4割程度の雲 雲底高度 1,520m
23日5時 TMT ~ 23日8時 TMT に一時的に
風向・風速南南西 6m/s
23日10時 TMT ~ 23日12時 TMT に徐々に
風向・風速東北東 6m/s
TAF UTAA 222212Z 2300/2324 30014KT 6000 SCT050 530009
TEMPO 2300/2303 21012KT
BECMG 2305/2307 06012KT